Time;durP1;ratioP1;P1;durP2;ratioP2;P2;SDS_P1;SDS_P2;PMS_P1;PMS_P2;Temp;Humidity;BMP_temperature;BMP_pressure;BME280_temperature;BME280_humidity;BME280_pressure;Samples;Min_cycle;Max_cycle;Signal;HPM_P1;HPM_P2
2023/07/25 07:01:27;;;;;;;0.20;0.20;;;17.00;99.90;19.90;100509.00;;;;6254134;22;1395450;-70
2023/07/25 07:03:59;;;;;;;0.30;0.30;;;17.10;99.90;20.20;100506.00;;;;6309578;22;20160;-70
2023/07/25 07:06:28;;;;;;;0.10;0.10;;;17.50;99.90;19.40;100515.00;;;;6257203;22;20182;-69
2023/07/25 07:08:54;;;;;;;0.20;0.20;;;17.20;99.90;19.70;100512.00;;;;6309122;22;20589;-69
2023/07/25 07:11:19;;;;;;;0.20;0.20;;;17.30;99.90;20.90;100520.00;;;;6282361;22;20194;-70
2023/07/25 07:13:45;;;;;;;0.10;0.10;;;17.80;99.90;19.60;100517.00;;;;6308760;22;20149;-69
2023/07/25 07:16:11;;;;;;;0.17;0.17;;;17.60;99.90;20.70;100528.00;;;;6256289;22;20506;-69
2023/07/25 07:18:43;;;;;;;0.20;0.20;;;18.00;99.90;20.10;100514.00;;;;6309464;22;20146;-69
2023/07/25 07:21:14;;;;;;;0.10;0.10;;;17.90;99.90;22.30;100544.00;;;;6309485;22;20583;-69
2023/07/25 07:23:45;;;;;;;0.10;0.10;;;19.00;99.90;23.30;100563.00;;;;6281795;22;20183;-70
2023/07/25 07:26:19;;;;;;;0.20;0.20;;;20.30;99.90;23.80;100563.00;;;;6281876;22;20186;-70
2023/07/25 07:28:54;;;;;;;0.28;0.28;;;21.30;99.90;23.00;100519.00;;;;6256096;22;20157;-70
2023/07/25 07:31:23;;;;;;;1.75;0.55;;;21.60;99.90;21.10;100556.00;;;;6255575;22;20213;-70
2023/07/25 07:34:15;;;;;;;0.10;0.10;;;20.60;99.90;20.90;100540.00;;;;6282540;22;20219;-70
2023/07/25 07:36:42;;;;;;;0.10;0.10;;;19.50;99.90;22.70;100571.00;;;;6281743;22;20519;-71
2023/07/25 07:39:11;;;;;;;0.73;0.73;;;19.90;99.90;23.70;100543.00;;;;6280518;22;20172;-70
2023/07/25 07:41:37;;;;;;;0.10;0.10;;;20.40;99.90;24.50;100583.00;;;;6256473;22;20650;-70
2023/07/25 07:44:37;;;;;;;0.10;0.10;;;21.30;99.90;23.70;100587.00;;;;6308082;22;20136;-70
2023/07/25 07:47:41;;;;;;;0.10;0.10;;;21.40;99.90;22.90;100592.00;;;;6277530;22;20230;-69
2023/07/25 07:50:12;;;;;;;0.10;0.10;;;21.10;99.90;22.20;100609.00;;;;6281522;22;20232;-69
2023/07/25 07:52:43;;;;;;;0.57;0.30;;;20.40;99.90;22.70;100601.00;;;;6255898;22;20298;-73
2023/07/25 07:58:17;;;;;;;0.75;0.35;;;20.60;99.90;21.20;100590.00;;;;6262757;22;20164;-76
2023/07/25 08:00:43;;;;;;;0.55;0.55;;;19.70;99.90;20.10;100558.00;;;;6260850;22;20589;-73
2023/07/25 08:03:19;;;;;;;1.65;0.40;;;19.00;99.90;19.60;100549.00;;;;6275696;22;20222;-73
2023/07/25 08:05:48;;;;;;;0.20;0.20;;;18.40;99.90;20.40;100566.00;;;;6250328;22;20454;-72
2023/07/25 08:08:25;;;;;;;0.20;0.20;;;18.40;99.90;21.20;100567.00;;;;6251546;22;20144;-74
2023/07/25 08:11:00;;;;;;;0.45;0.45;;;18.90;99.90;23.50;100586.00;;;;6277881;22;20228;-73
2023/07/25 08:13:34;;;;;;;1.20;0.90;;;20.30;99.90;25.20;100615.00;;;;6225612;22;20583;-74
2023/07/25 08:16:10;;;;;;;0.20;0.20;;;21.70;99.90;26.10;100646.00;;;;6277438;22;20160;-74
2023/07/25 08:18:44;;;;;;;0.47;0.47;;;22.90;99.90;25.90;100664.00;;;;6225240;22;20652;-74
2023/07/25 08:21:13;;;;;;;0.30;0.30;;;23.20;99.90;25.60;100655.00;;;;6220923;22;20157;-74
2023/07/25 08:23:50;;;;;;;0.10;0.10;;;23.30;99.90;27.40;100661.00;;;;6249246;22;20195;-74
2023/07/25 08:26:21;;;;;;;0.10;0.10;;;24.00;99.90;26.70;100663.00;;;;6276844;22;20524;-74
2023/07/25 08:28:47;;;;;;;0.10;0.10;;;24.10;99.90;26.40;100673.00;;;;6248607;22;20157;-74
2023/07/25 08:31:15;;;;;;;0.10;0.10;;;23.50;99.90;25.60;100691.00;;;;6248965;22;20191;-73
2023/07/25 08:33:47;;;;;;;0.10;0.10;;;23.30;99.90;25.40;100676.00;;;;6249152;22;20172;-74
2023/07/25 08:36:13;;;;;;;0.10;0.10;;;22.60;99.90;25.00;100657.00;;;;6249384;22;20574;-74
2023/07/25 08:38:44;;;;;;;0.30;0.30;;;22.60;99.90;24.10;100703.00;;;;6249090;22;20160;-74
2023/07/25 08:41:17;;;;;;;0.40;0.40;;;22.30;99.90;24.80;100716.00;;;;6276723;22;20156;-74
2023/07/25 08:43:53;;;;;;;0.13;0.13;;;22.60;99.90;22.50;100684.00;;;;6223368;22;20180;-73
2023/07/25 08:46:24;;;;;;;0.20;0.20;;;21.30;99.90;22.30;100758.00;;;;6249280;22;20160;-74
2023/07/25 08:48:56;;;;;;;0.32;0.30;;;20.60;99.90;22.30;100738.00;;;;6249249;22;20578;-73
2023/07/25 08:51:26;;;;;;;0.20;0.20;;;20.30;99.90;23.30;100731.00;;;;6275778;22;20145;-73
2023/07/25 08:54:05;;;;;;;0.10;0.10;;;20.40;99.90;24.60;100703.00;;;;6249581;22;20149;-74
2023/07/25 08:56:41;;;;;;;0.10;0.10;;;21.10;99.90;23.40;100708.00;;;;6248506;22;20148;-74
2023/07/25 08:59:10;;;;;;;4.13;3.92;;;21.10;99.90;24.80;100720.00;;;;6224251;22;20177;-74
2023/07/25 09:01:39;;;;;;;0.30;0.30;;;21.40;99.90;24.90;100700.00;;;;6280088;22;20223;-77
2023/07/25 09:04:08;;;;;;;0.10;0.10;;;21.80;99.90;24.50;100710.00;;;;6255098;22;20152;-71
2023/07/25 09:06:39;;;;;;;0.10;0.10;;;21.70;99.90;25.30;100701.00;;;;6307913;22;20141;-69
2023/07/25 09:09:08;;;;;;;2.85;0.80;;;22.20;99.90;24.20;100663.00;;;;6279573;22;20163;-71
2023/07/25 09:11:37;;;;;;;0.10;0.10;;;22.30;99.90;24.10;100729.00;;;;6307187;22;20622;-71
2023/07/25 09:14:19;;;;;;;0.20;0.20;;;22.00;99.90;22.50;100750.00;;;;6280227;22;20581;-71
2023/07/25 09:16:51;;;;;;;0.15;0.15;;;21.10;99.90;21.70;100738.00;;;;6306013;22;20496;-70
2023/07/25 09:19:22;;;;;;;0.10;0.10;;;20.10;99.90;22.00;100683.00;;;;6280264;22;20228;-70
2023/07/25 09:21:57;;;;;;;0.20;0.20;;;19.70;99.90;22.80;100750.00;;;;6279518;22;20161;-70
2023/07/25 09:24:43;;;;;;;1.85;0.38;;;19.80;99.90;23.90;100709.00;;;;6279658;22;20227;-70
2023/07/25 09:27:17;;;;;;;1.08;0.40;;;20.60;99.90;24.80;100722.00;;;;6279507;22;20160;-71
2023/07/25 09:29:50;;;;;;;3.30;0.40;;;21.70;99.90;24.10;100737.00;;;;6280369;22;20662;-70
2023/07/25 09:32:27;;;;;;;0.10;0.10;;;21.70;99.90;26.40;100690.00;;;;6252820;22;20192;-70
2023/07/25 09:35:11;;;;;;;0.30;0.30;;;23.00;99.90;26.20;100697.00;;;;6281369;22;20149;-70
2023/07/25 09:37:37;;;;;;;0.30;0.30;;;23.50;99.90;26.60;100674.00;;;;6306803;22;20144;-69
2023/07/25 09:40:15;;;;;;;0.10;0.10;;;23.50;99.90;25.60;100613.00;;;;6279939;22;20167;-69
2023/07/25 09:42:50;;;;;;;0.40;0.40;;;23.00;99.90;25.90;100689.00;;;;6306117;22;20199;-68
2023/07/25 09:45:25;;;;;;;1.65;0.32;;;22.80;99.90;26.30;100684.00;;;;6280582;22;20146;-69
2023/07/25 09:47:56;;;;;;;0.10;0.10;;;23.30;99.90;27.80;100667.00;;;;6278885;22;20588;-69
2023/07/25 09:50:33;;;;;;;2.28;0.32;;;24.20;99.90;27.30;100669.00;;;;6279790;22;20151;-67
2023/07/25 09:53:03;;;;;;;0.10;0.10;;;24.50;99.90;28.00;100665.00;;;;6254181;22;20159;-72
2023/07/25 09:56:25;;;;;;;0.77;0.77;;;24.90;99.90;27.50;100671.00;;;;6280029;22;20144;-68
2023/07/25 09:59:05;;;;;;;0.10;0.10;;;25.20;99.90;27.00;100673.00;;;;6278885;22;20164;-68
2023/07/25 10:01:43;;;;;;;0.10;0.10;;;24.90;99.90;25.20;100692.00;;;;6224182;22;20187;-68
2023/07/25 10:04:16;;;;;;;0.10;0.10;;;23.80;99.90;26.10;100697.00;;;;6248971;22;20160;-68
2023/07/25 10:06:42;;;;;;;0.10;0.10;;;23.70;99.90;27.20;100693.00;;;;6248651;22;20167;-68
2023/07/25 10:09:17;;;;;;;0.10;0.10;;;24.20;99.90;25.60;100730.00;;;;6248917;22;20176;-69
2023/07/25 10:11:52;;;;;;;0.20;0.20;;;23.90;99.90;27.00;100710.00;;;;6248861;22;20167;-68
2023/07/25 10:14:24;;;;;;;0.10;0.10;;;24.40;99.90;25.90;100715.00;;;;6223227;22;20160;-68
2023/07/25 10:16:50;;;;;;;0.10;0.10;;;24.00;99.90;25.70;100722.00;;;;6248535;22;20577;-68
2023/07/25 10:19:24;;;;;;;0.10;0.10;;;23.80;99.90;27.40;100710.00;;;;6248544;22;20137;-68
2023/07/25 10:33:38;;;;;;;0.10;0.10;;;20.80;99.90;23.20;100777.00;;;;4967062;27;5197605;-69
2023/07/25 10:36:27;;;;;;;0.80;0.80;;;20.70;99.90;23.20;100797.00;;;;5100474;28;20188;-69
2023/07/25 10:39:26;;;;;;;0.28;0.28;;;20.70;99.90;22.60;100807.00;;;;5100889;28;20180;-69
2023/07/25 10:42:02;;;;;;;0.57;0.57;;;20.70;99.90;23.40;100800.00;;;;5101524;28;20219;-69
2023/07/25 10:44:42;;;;;;;0.10;0.10;;;20.60;99.90;24.30;100747.00;;;;5117033;28;20190;-69
2023/07/25 10:47:48;;;;;;;0.13;0.13;;;21.00;99.90;24.00;100802.00;;;;5117817;28;20182;-69
2023/07/25 10:50:59;;;;;;;0.20;0.20;;;21.30;99.90;24.40;100785.00;;;;5116038;28;20192;-69
2023/07/25 10:53:34;;;;;;;0.10;0.10;;;21.40;99.90;26.20;100759.00;;;;5117888;28;20299;-70
2023/07/25 10:56:23;;;;;;;0.20;0.20;;;22.50;99.90;27.20;100738.00;;;;5117833;28;20175;-70
2023/07/25 10:59:11;;;;;;;0.10;0.10;;;23.50;99.90;27.10;100735.00;;;;5118078;28;20188;-71
2023/07/25 11:01:48;;;;;;;0.10;0.10;;;24.10;99.90;27.50;100666.00;;;;5117755;28;20203;-71
2023/07/25 11:04:31;;;;;;;0.10;0.10;;;24.40;99.90;28.30;100733.00;;;;5116104;28;20536;-71
2023/07/25 11:07:10;;;;;;;0.15;0.15;;;25.20;99.90;27.60;100680.00;;;;5118443;28;20176;-71
2023/07/25 11:10:04;;;;;;;0.80;0.60;;;25.00;99.90;28.50;100720.00;;;;5117915;28;20188;-71
2023/07/25 11:12:59;;;;;;;0.45;0.45;;;25.40;99.90;29.20;100742.00;;;;5092232;28;20696;-71
2023/07/25 11:15:55;;;;;;;0.10;0.10;;;26.30;99.90;27.60;100740.00;;;;5109459;28;20177;-70
2023/07/25 11:18:21;;;;;;;0.10;0.10;;;25.70;99.90;26.20;100751.00;;;;5089211;28;20646;-70
2023/07/25 11:21:04;;;;;;;0.10;0.10;;;24.60;99.90;27.80;100757.00;;;;5107924;28;20192;-70
2023/07/25 11:23:44;;;;;;;0.82;0.82;;;25.10;99.90;28.20;100750.00;;;;5092208;28;20712;-70
2023/07/25 11:26:22;;;;;;;0.20;0.20;;;25.60;99.90;26.50;100754.00;;;;5098263;28;20251;-70
2023/07/25 11:28:50;;;;;;;0.20;0.20;;;24.90;99.90;26.70;100767.00;;;;5107501;28;20191;-70
2023/07/25 11:31:22;;;;;;;0.28;0.28;;;24.60;99.90;27.40;100765.00;;;;5090028;28;20189;-70
2023/07/25 11:34:47;;;;;;;0.30;0.30;;;25.20;99.90;26.30;100781.00;;;;5104224;28;20220;-70
2023/07/25 11:37:13;;;;;;;0.20;0.20;;;24.70;99.90;25.80;100789.00;;;;5107888;28;20219;-70
2023/07/25 11:39:39;;;;;;;0.20;0.20;;;23.80;99.90;26.10;100784.00;;;;5089327;28;20212;-69
2023/07/25 11:42:08;;;;;;;0.30;0.30;;;23.70;99.90;27.00;100737.00;;;;5090139;28;20187;-70
2023/07/25 11:44:36;;;;;;;0.10;0.10;;;24.20;99.90;26.80;100788.00;;;;5095692;28;20188;-70
2023/07/25 11:47:16;;;;;;;0.17;0.17;;;24.50;99.90;29.30;100777.00;;;;5094944;28;20192;-72
2023/07/25 11:50:03;;;;;;;0.80;0.38;;;25.80;99.90;27.40;100790.00;;;;5074687;28;20219;-70
2023/07/25 11:52:32;;;;;;;0.10;0.10;;;26.20;99.90;26.90;100799.00;;;;5056963;28;20295;-69
2023/07/25 11:55:03;;;;;;;0.30;0.17;;;24.80;99.90;26.50;100808.00;;;;5070114;28;20184;-70
2023/07/25 11:57:29;;;;;;;0.10;0.10;;;24.30;99.90;25.60;100807.00;;;;5078409;28;20188;-69
2023/07/25 12:00:06;;;;;;;0.55;0.30;;;24.00;99.90;25.50;100829.00;;;;5091646;28;20196;-70
2023/07/25 12:02:40;;;;;;;0.10;0.10;;;23.70;99.90;26.60;100820.00;;;;5100476;28;20256;-69
2023/07/25 12:05:27;;;;;;;1.83;1.48;;;23.50;99.90;26.80;100813.00;;;;4166350;28;10000636;-69
2023/07/25 12:08:03;;;;;;;0.22;0.22;;;24.00;99.90;26.80;100802.00;;;;4155754;28;10000887;-69
2023/07/25 12:10:34;;;;;;;0.10;0.10;;;24.20;99.90;27.40;100828.00;;;;5043845;28;20220;-69
2023/07/25 12:13:08;;;;;;;0.20;0.20;;;24.20;99.90;26.70;100813.00;;;;4142059;28;10000721;-69
2023/07/25 12:15:44;;;;;;;0.20;0.20;;;24.20;99.90;25.90;100827.00;;;;4185714;28;10000942;-69
2023/07/25 12:18:29;;;;;;;6.28;0.40;;;23.70;99.90;25.70;100838.00;;;;5062107;28;20251;-68
2023/07/25 12:20:57;;;;;;;0.95;0.40;;;23.30;99.90;25.10;100837.00;;;;5063400;28;20221;-68
2023/07/25 12:24:00;;;;;;;0.10;0.10;;;22.90;99.90;26.00;100848.00;;;;5062465;28;20185;-68
2023/07/25 12:27:12;;;;;;;0.20;0.20;;;22.90;99.90;25.60;100856.00;;;;5047781;28;20636;-68
2023/07/25 12:30:21;;;;;;;0.10;0.10;;;22.90;99.90;25.40;100854.00;;;;5062005;28;20190;-68
2023/07/25 12:33:27;;;;;;;0.30;0.30;;;22.60;99.90;24.80;100868.00;;;;5061642;28;20319;-69
2023/07/25 12:36:33;;;;;;;0.17;0.17;;;22.70;99.90;24.40;100869.00;;;;5052209;28;20286;-68
2023/07/25 12:39:40;;;;;;;6.95;0.40;;;22.30;99.90;25.30;100870.00;;;;5060068;28;20193;-68
2023/07/25 12:42:44;;;;;;;0.13;0.13;;;22.40;99.90;26.10;100861.00;;;;5060321;28;20205;-69
2023/07/25 12:45:51;;;;;;;0.10;0.10;;;22.90;99.90;26.30;100855.00;;;;5060787;28;20196;-69
2023/07/25 12:48:45;;;;;;;0.15;0.15;;;23.00;99.90;26.30;100844.00;;;;5055780;28;20699;-69
2023/07/25 12:51:39;;;;;;;0.10;0.10;;;23.20;99.90;25.00;100810.00;;;;5049013;28;20198;-68
2023/07/25 12:54:28;;;;;;;0.10;0.10;;;22.60;99.90;24.50;100865.00;;;;5053090;28;20174;-69
2023/07/25 12:57:23;;;;;;;0.10;0.10;;;21.90;99.90;24.20;100819.00;;;;5051760;28;20190;-69
2023/07/25 13:00:24;;;;;;;0.20;0.20;;;22.10;99.90;25.30;100867.00;;;;5050532;28;20256;-68
2023/07/25 13:03:20;;;;;;;0.10;0.10;;;22.20;99.90;25.20;100872.00;;;;5041268;28;20214;-68
2023/07/25 13:06:20;;;;;;;0.17;0.17;;;22.30;99.90;25.20;100875.00;;;;5050148;28;20560;-69
2023/07/25 13:09:12;;;;;;;0.40;0.40;;;22.40;99.90;24.60;100853.00;;;;5060806;28;20556;-68
2023/07/25 13:11:55;;;;;;;0.10;0.10;;;22.30;99.90;25.10;100856.00;;;;5051770;28;20198;-69
2023/07/25 13:14:29;;;;;;;0.10;0.10;;;22.30;99.90;24.60;100863.00;;;;5053762;28;20553;-69
2023/07/25 13:17:32;;;;;;;0.10;0.10;;;22.30;99.90;25.90;100789.00;;;;5053146;28;20182;-69
2023/07/25 13:20:14;;;;;;;0.40;0.40;;;22.60;99.90;25.80;100861.00;;;;5053567;28;20169;-68
2023/07/25 13:23:15;;;;;;;0.10;0.10;;;23.00;99.90;25.30;100861.00;;;;5034573;28;20189;-70
2023/07/25 13:26:15;;;;;;;1.10;0.22;;;22.60;99.90;24.80;100798.00;;;;5049303;28;20185;-69
2023/07/25 13:28:57;;;;;;;0.20;0.20;;;22.60;99.90;24.50;100871.00;;;;5045419;28;20201;-69
2023/07/25 13:32:00;;;;;;;0.10;0.10;;;21.90;99.90;24.80;100881.00;;;;5047226;28;20318;-68
2023/07/25 13:34:43;;;;;;;0.10;0.10;;;22.00;99.90;26.10;100854.00;;;;5050202;28;20284;-68
2023/07/25 13:37:54;;;;;;;0.30;0.30;;;22.60;99.90;25.60;100868.00;;;;5051338;28;20199;-69
2023/07/25 13:40:50;;;;;;;0.10;0.10;;;22.60;99.90;25.90;100810.00;;;;5061461;28;20640;-68
2023/07/25 13:43:36;;;;;;;0.10;0.10;;;22.60;99.90;24.90;100862.00;;;;5042086;28;20562;-69
2023/07/25 13:46:36;;;;;;;0.10;0.10;;;22.50;99.90;24.40;100870.00;;;;5052625;28;20185;-68
2023/07/25 13:49:45;;;;;;;0.22;0.22;;;22.10;99.90;24.10;100893.00;;;;5049890;28;20226;-68
2023/07/25 13:52:54;;;;;;;0.10;0.10;;;21.70;99.90;24.20;100902.00;;;;5051214;28;20197;-69
2023/07/25 13:55:35;;;;;;;0.20;0.20;;;21.60;99.90;24.30;100898.00;;;;5038064;28;20196;-68
2023/07/25 13:58:12;;;;;;;0.20;0.20;;;21.60;99.90;24.30;100903.00;;;;5044960;28;20181;-68
2023/07/25 14:00:46;;;;;;;0.10;0.10;;;21.50;99.90;24.70;100895.00;;;;5059814;28;20708;-69
2023/07/25 14:03:27;;;;;;;0.10;0.10;;;21.70;99.90;25.50;100825.00;;;;5043741;28;20301;-69
2023/07/25 14:06:07;;;;;;;0.10;0.10;;;22.10;99.90;26.20;100882.00;;;;5059337;28;20236;-69
2023/07/25 14:08:47;;;;;;;0.10;0.10;;;22.50;99.90;26.40;100887.00;;;;5043752;28;20206;-69
2023/07/25 14:11:19;;;;;;;0.10;0.10;;;22.80;99.90;25.20;100894.00;;;;5060448;28;20208;-68
2023/07/25 14:14:09;;;;;;;0.20;0.20;;;22.60;99.90;24.10;100918.00;;;;5043300;28;20708;-68
2023/07/25 14:16:41;;;;;;;0.40;0.40;;;21.80;99.90;23.10;100921.00;;;;5059493;28;20687;-68
2023/07/25 14:19:07;;;;;;;0.10;0.10;;;21.50;99.90;23.90;100917.00;;;;5059719;28;20185;-68
2023/07/25 14:22:01;;;;;;;0.10;0.10;;;21.20;99.90;24.20;100920.00;;;;5043317;28;20186;-68
2023/07/25 14:25:12;;;;;;;0.20;0.17;;;21.40;99.90;23.20;100934.00;;;;5044016;28;20189;-68
2023/07/25 14:28:01;;;;;;;0.50;0.50;;;21.50;99.90;22.80;100938.00;;;;5061520;28;20192;-68
2023/07/25 14:30:50;;;;;;;1.80;0.43;;;20.90;99.90;23.90;100923.00;;;;5039033;28;20233;-71
2023/07/25 14:33:57;;;;;;;0.10;0.10;;;20.90;99.90;24.10;100922.00;;;;5060517;28;20224;-68
2023/07/25 14:36:49;;;;;;;0.30;0.30;;;21.10;99.90;24.20;100932.00;;;;5059538;28;20697;-68
2023/07/25 14:39:55;;;;;;;0.20;0.20;;;21.40;99.90;24.80;100933.00;;;;5037679;28;20206;-68
2023/07/25 14:42:53;;;;;;;0.10;0.10;;;21.60;99.90;25.20;100924.00;;;;5036981;28;20201;-68
2023/07/25 14:45:57;;;;;;;0.17;0.13;;;21.90;99.90;25.30;100938.00;;;;5000215;28;20557;-68
2023/07/25 14:49:05;;;;;;;11.60;0.45;;;22.10;99.90;24.50;100936.00;;;;5022260;28;20190;-68
2023/07/25 14:52:05;;;;;;;7.40;0.63;;;22.30;99.90;24.70;100930.00;;;;5057671;28;20201;-68
2023/07/25 14:55:03;;;;;;;0.10;0.10;;;22.00;99.90;24.70;100937.00;;;;5040710;28;20202;-68
2023/07/25 14:58:12;;;;;;;0.90;0.20;;;22.10;99.90;24.90;100936.00;;;;5056656;28;20209;-68
2023/07/25 15:01:19;;;;;;;0.10;0.10;;;22.10;99.90;24.80;100952.00;;;;5058593;28;20209;-68
2023/07/25 15:04:16;;;;;;;0.10;0.10;;;22.20;99.90;24.10;100953.00;;;;5058611;28;20289;-68
2023/07/25 15:07:25;;;;;;;0.22;0.22;;;21.80;99.90;24.10;100959.00;;;;5043000;28;20217;-68
2023/07/25 15:10:22;;;;;;;0.10;0.10;;;21.60;99.90;25.20;100948.00;;;;5059055;28;20198;-68
2023/07/25 15:13:20;;;;;;;0.10;0.10;;;21.90;99.90;25.60;100956.00;;;;5056203;28;20651;-68
2023/07/25 15:16:11;;;;;;;0.30;0.30;;;22.20;99.90;24.90;100946.00;;;;5057013;28;20204;-68
2023/07/25 15:18:48;;;;;;;0.17;0.17;;;21.90;99.90;24.20;100913.00;;;;5056797;28;20532;-68
2023/07/25 15:21:43;;;;;;;0.10;0.10;;;21.80;99.90;24.20;100964.00;;;;5062920;28;20181;-68
2023/07/25 15:24:35;;;;;;;0.10;0.10;;;21.60;99.90;25.00;100950.00;;;;5063542;28;20198;-68
2023/07/25 15:27:32;;;;;;;0.65;0.65;;;21.90;99.90;25.30;100959.00;;;;5062990;28;20179;-68
2023/07/25 15:30:32;;;;;;;0.20;0.20;;;22.10;99.90;25.90;100943.00;;;;5060439;28;20250;-68
2023/07/25 15:33:23;;;;;;;0.10;0.10;;;22.30;99.90;25.60;100950.00;;;;5062403;28;20222;-68
2023/07/25 15:36:11;;;;;;;1.55;0.20;;;22.50;99.90;26.00;100945.00;;;;5062967;28;20177;-68
2023/07/25 15:39:06;;;;;;;0.10;0.10;;;22.70;99.90;26.10;100926.00;;;;5064271;28;20185;-68
2023/07/25 15:42:16;;;;;;;0.10;0.10;;;22.80;99.90;25.30;100949.00;;;;5063294;28;20197;-68
2023/07/25 15:44:52;;;;;;;0.10;0.10;;;22.60;99.90;25.10;100946.00;;;;5063286;28;20563;-68
2023/07/25 15:47:35;;;;;;;0.10;0.10;;;22.30;99.90;25.70;100946.00;;;;5062250;28;20268;-68
2023/07/25 15:50:24;;;;;;;0.10;0.10;;;22.40;99.90;25.80;100939.00;;;;5062366;28;20205;-69
2023/07/25 15:52:55;;;;;;;0.17;0.17;;;22.60;99.90;24.50;100942.00;;;;5063073;28;20565;-68
2023/07/25 15:55:26;;;;;;;0.10;0.10;;;22.00;99.90;24.30;100946.00;;;;5064084;28;20178;-68
2023/07/25 15:57:57;;;;;;;0.10;0.10;;;21.70;99.90;24.40;100958.00;;;;5062877;28;20185;-68
2023/07/25 16:00:26;;;;;;;0.20;0.20;;;21.70;99.90;24.60;100962.00;;;;5062535;28;20186;-68
2023/07/25 16:02:52;;;;;;;0.10;0.10;;;21.50;99.90;25.20;100951.00;;;;5063104;28;20647;-68
2023/07/25 16:05:18;;;;;;;0.10;0.10;;;21.80;99.90;25.70;100865.00;;;;5062277;28;20178;-71
2023/07/25 16:07:49;;;;;;;0.32;0.25;;;22.10;99.90;25.80;100896.00;;;;5060624;28;20652;-71
2023/07/25 16:10:18;;;;;;;0.10;0.10;;;22.40;99.90;25.90;100908.00;;;;5062879;28;20189;-71
2023/07/25 16:13:06;;;;;;;0.20;0.20;;;22.50;99.90;25.70;100954.00;;;;5063576;28;20278;-70
2023/07/25 16:15:42;;;;;;;0.10;0.10;;;22.50;99.90;26.20;100952.00;;;;5045424;28;20269;-71
2023/07/25 16:18:08;;;;;;;0.10;0.10;;;22.80;99.90;26.50;100939.00;;;;5063087;28;20290;-71
2023/07/25 16:20:44;;;;;;;0.10;0.10;;;23.00;99.90;26.40;100947.00;;;;5064239;28;20224;-71
2023/07/25 16:23:15;;;;;;;0.20;0.20;;;23.10;99.90;26.10;100898.00;;;;5064097;28;20192;-71
2023/07/25 16:25:46;;;;;;;0.10;0.10;;;22.90;99.90;26.40;100944.00;;;;5063894;28;20170;-71
2023/07/25 16:28:12;;;;;;;0.10;0.10;;;23.00;99.90;26.20;100956.00;;;;5063413;28;20197;-71
2023/07/25 16:30:50;;;;;;;0.10;0.10;;;22.90;99.90;26.30;100958.00;;;;5062895;28;21113;-71
2023/07/25 16:33:18;;;;;;;0.10;0.10;;;22.90;99.90;26.10;100950.00;;;;5045385;28;20611;-71
2023/07/25 16:35:55;;;;;;;0.10;0.10;;;22.80;99.90;25.50;100967.00;;;;5043304;28;20178;-71
2023/07/25 16:38:34;;;;;;;0.10;0.10;;;22.60;99.90;25.70;100977.00;;;;5062514;28;20627;-71
2023/07/25 16:41:10;;;;;;;0.10;0.10;;;22.40;99.90;26.30;100966.00;;;;5062227;28;20177;-71
2023/07/25 16:43:44;;;;;;;0.10;0.10;;;22.60;99.90;25.90;100974.00;;;;5062598;28;20540;-71
2023/07/25 16:46:18;;;;;;;0.10;0.10;;;22.60;99.90;25.80;100976.00;;;;5059735;28;20182;-71
2023/07/25 16:48:55;;;;;;;0.20;0.20;;;22.60;99.90;25.00;100920.00;;;;5061582;28;20270;-71
2023/07/25 16:51:32;;;;;;;0.15;0.15;;;22.20;99.90;24.40;101000.00;;;;5061951;28;20196;-71
2023/07/25 16:54:06;;;;;;;0.10;0.10;;;21.70;99.90;24.60;101004.00;;;;5062027;28;20177;-71
2023/07/25 16:56:40;;;;;;;0.10;0.10;;;21.60;99.90;24.30;101014.00;;;;5068654;28;20176;-71
2023/07/25 16:59:09;;;;;;;0.10;0.10;;;21.50;99.90;24.50;101027.00;;;;5059121;28;20566;-71
2023/07/25 17:01:35;;;;;;;0.10;0.10;;;21.50;99.90;24.90;101010.00;;;;5052362;28;20182;-71
2023/07/25 17:04:49;;;;;;;0.20;0.20;;;21.50;99.90;24.60;101027.00;;;;5052988;28;20521;-71
2023/07/25 17:08:03;;;;;;;0.10;0.10;;;21.60;99.90;24.90;100986.00;;;;5052429;28;20713;-71
2023/07/25 17:10:36;;;;;;;0.10;0.10;;;21.60;99.90;24.70;101035.00;;;;5053501;28;20632;-71
2023/07/25 17:13:05;;;;;;;0.10;0.10;;;21.60;99.90;24.80;101040.00;;;;5040168;28;20588;-71
2023/07/25 17:16:24;;;;;;;0.20;0.20;;;21.70;99.90;24.80;101040.00;;;;5052993;28;20536;-71
2023/07/25 17:19:27;;;;;;;7.43;0.68;;;21.60;99.90;24.00;101050.00;;;;5035254;28;20185;-71
2023/07/25 17:22:31;;;;;;;0.10;0.10;;;21.30;99.90;23.70;101044.00;;;;5052423;28;20178;-71
2023/07/25 17:25:05;;;;;;;0.10;0.10;;;20.90;99.90;23.50;101064.00;;;;5046600;28;20190;-71
2023/07/25 17:28:29;;;;;;;0.10;0.10;;;20.70;99.90;23.90;101009.00;;;;5052818;28;20186;-71
2023/07/25 17:31:30;;;;;;;0.10;0.10;;;20.70;99.90;24.10;101031.00;;;;5030888;28;20190;-71
2023/07/25 17:34:38;;;;;;;0.10;0.10;;;20.80;99.90;23.70;101078.00;;;;5052665;28;20186;-71
2023/07/25 17:37:13;;;;;;;0.20;0.20;;;20.60;99.90;23.60;101070.00;;;;5044340;28;20186;-71
2023/07/25 17:40:03;;;;;;;0.10;0.10;;;20.60;99.90;24.00;101074.00;;;;5032582;28;20276;-71
2023/07/25 17:42:46;;;;;;;0.10;0.10;;;20.70;99.90;24.20;101069.00;;;;5045294;28;20179;-71
2023/07/25 17:45:41;;;;;;;1.35;1.27;;;20.80;99.90;23.50;101074.00;;;;5047295;28;20178;-71
2023/07/25 17:48:20;;;;;;;0.10;0.10;;;20.80;99.90;23.70;101086.00;;;;5052316;28;20179;-70
2023/07/25 17:50:57;;;;;;;0.10;0.10;;;20.60;99.90;23.30;101091.00;;;;5052068;28;20660;-70
2023/07/25 17:53:23;;;;;;;0.10;0.10;;;20.50;99.90;23.90;101078.00;;;;5052942;28;20561;-69
2023/07/25 17:55:56;;;;;;;0.10;0.10;;;20.50;99.90;23.80;101073.00;;;;5058939;28;20186;-74
2023/07/25 17:58:33;;;;;;;0.10;0.10;;;20.60;99.90;23.60;101071.00;;;;5051939;28;20609;-73
2023/07/25 18:00:59;;;;;;;0.20;0.20;;;20.50;99.90;22.80;101087.00;;;;5059396;28;20650;-74
2023/07/25 18:03:25;;;;;;;0.40;0.40;;;20.30;99.90;23.00;101060.00;;;;5045113;28;20189;-74
2023/07/25 18:05:51;;;;;;;0.10;0.10;;;20.20;99.90;23.60;101065.00;;;;5060039;28;20686;-74
2023/07/25 18:08:24;;;;;;;0.63;0.63;;;20.30;99.90;23.50;101045.00;;;;5058746;28;20197;-74
2023/07/25 18:10:50;;;;;;;0.10;0.10;;;20.30;99.90;23.50;101058.00;;;;5059764;28;20223;-75
2023/07/25 18:13:20;;;;;;;0.10;0.10;;;20.20;99.90;23.80;101059.00;;;;5059470;28;20202;-74
2023/07/25 18:15:54;;;;;;;0.10;0.10;;;20.40;99.90;23.30;101008.00;;;;5060005;28;20184;-75
2023/07/25 18:18:19;;;;;;;0.10;0.10;;;20.20;99.90;23.40;101053.00;;;;5043694;28;20236;-74
2023/07/25 18:20:46;;;;;;;0.10;0.10;;;20.20;99.90;24.10;101043.00;;;;5059111;28;20182;-74
2023/07/25 18:23:20;;;;;;;0.10;0.10;;;20.30;99.90;24.10;101042.00;;;;5058201;28;20189;-74
2023/07/25 18:25:47;;;;;;;0.10;0.10;;;20.50;99.90;23.70;101042.00;;;;5060429;28;20185;-74
2023/07/25 18:28:12;;;;;;;0.10;0.10;;;20.40;99.90;23.50;101052.00;;;;5059633;28;20220;-74
2023/07/25 18:30:46;;;;;;;0.10;0.10;;;20.30;99.90;23.60;101047.00;;;;5060166;28;20641;-74
2023/07/25 18:33:17;;;;;;;0.10;0.10;;;20.20;99.90;23.50;100998.00;;;;5059337;28;20842;-74
2023/07/25 18:35:42;;;;;;;0.10;0.10;;;20.20;99.90;24.00;100992.00;;;;5059846;28;20186;-74
2023/07/25 18:38:14;;;;;;;0.10;0.10;;;20.50;99.90;23.60;100924.00;;;;5043592;28;20254;-74
2023/07/25 18:40:48;;;;;;;0.10;0.10;;;20.30;99.90;23.70;100971.00;;;;5042549;28;20190;-74
2023/07/25 18:43:17;;;;;;;0.97;0.97;;;20.40;99.90;24.00;101048.00;;;;5059142;28;20225;-74
2023/07/25 18:45:45;;;;;;;0.10;0.10;;;20.40;99.90;23.90;100981.00;;;;5058966;28;20217;-74
2023/07/25 18:48:11;;;;;;;0.10;0.10;;;20.50;99.90;23.90;101055.00;;;;5060470;28;20188;-74
2023/07/25 18:50:40;;;;;;;0.10;0.10;;;20.40;99.90;23.80;100993.00;;;;5060483;28;20209;-74
2023/07/25 18:53:06;;;;;;;0.10;0.10;;;20.40;99.90;23.80;101046.00;;;;5051307;28;20269;-74
2023/07/25 18:55:35;;;;;;;0.10;0.10;;;20.30;99.90;23.80;101055.00;;;;5047452;28;20200;-74
2023/07/25 18:58:01;;;;;;;0.10;0.10;;;20.30;99.90;23.50;101051.00;;;;5047371;28;20591;-74
2023/07/25 19:00:27;;;;;;;0.10;0.10;;;20.10;99.90;23.60;101026.00;;;;5048071;28;20184;-74
2023/07/25 19:02:53;;;;;;;0.22;0.22;;;20.10;99.90;23.80;101063.00;;;;5063642;28;20227;-74